Time;durP1;ratioP1;P1;durP2;ratioP2;P2;SDS_P1;SDS_P2;PMS_P1;PMS_P2;Temp;Humidity;BMP_temperature;BMP_pressure;BME280_temperature;BME280_humidity;BME280_pressure;Samples;Min_cycle;Max_cycle;Signal;HPM_P1;HPM_P2
2022/02/26 00:00:58;;;;;;;44.00;24.88;;;;;;;6.29;100.00;101462.16;4977683;28;20458;-71
2022/02/26 00:03:43;;;;;;;46.08;25.58;;;;;;;5.74;100.00;101472.69;4977377;28;20419;-71
2022/02/26 00:06:29;;;;;;;41.33;25.05;;;;;;;5.87;100.00;101456.44;4978300;28;20069;-71
2022/02/26 00:09:15;;;;;;;39.63;23.52;;;;;;;6.00;100.00;101454.03;4976878;28;20019;-71
2022/02/26 00:12:01;;;;;;;43.80;24.73;;;;;;;5.81;100.00;101457.22;4977252;28;20467;-70
2022/02/26 00:14:47;;;;;;;38.30;23.90;;;;;;;5.76;100.00;101456.28;4962863;28;20180;-71
2022/02/26 00:17:34;;;;;;;39.88;23.48;;;;;;;5.85;100.00;101450.34;4976567;28;20429;-72
2022/02/26 00:20:20;;;;;;;46.70;24.73;;;;;;;5.66;100.00;101454.38;4977325;28;20026;-73
2022/02/26 00:23:05;;;;;;;74.78;40.83;;;;;;;6.00;100.00;101454.03;4976788;28;20030;-71
2022/02/26 00:25:51;;;;;;;68.18;39.53;;;;;;;5.87;100.00;101448.63;4976384;28;20054;-71
2022/02/26 00:28:37;;;;;;;59.72;35.60;;;;;;;6.10;100.00;101452.41;4976697;28;20045;-71
2022/02/26 00:31:23;;;;;;;50.78;29.27;;;;;;;5.91;100.00;101453.88;4962362;28;20019;-70
2022/02/26 00:34:08;;;;;;;51.65;30.42;;;;;;;5.48;100.00;101454.97;4977739;28;20038;-71
2022/02/26 00:36:54;;;;;;;55.00;32.33;;;;;;;5.76;100.00;101456.28;4976386;28;20419;-71
2022/02/26 00:39:41;;;;;;;55.55;31.10;;;;;;;5.84;100.00;101462.47;4976510;28;20416;-72
2022/02/26 00:42:26;;;;;;;49.47;28.45;;;;;;;5.70;100.00;101465.72;4976284;28;20027;-71
2022/02/26 00:45:12;;;;;;;41.50;25.75;;;;;;;5.82;100.00;101458.97;4976468;28;20034;-71
2022/02/26 00:47:58;;;;;;;44.08;24.75;;;;;;;5.63;100.00;101459.56;4976359;28;20062;-71
2022/02/26 00:50:44;;;;;;;35.42;21.40;;;;;;;5.79;100.00;101460.63;4976792;28;20092;-72
2022/02/26 00:53:30;;;;;;;35.50;21.33;;;;;;;5.93;100.00;101462.59;4975791;28;20030;-71
2022/02/26 00:56:16;;;;;;;33.58;19.38;;;;;;;5.49;100.00;101463.66;4976231;28;20030;-70
2022/02/26 00:59:02;;;;;;;32.75;20.30;;;;;;;5.76;100.00;101465.78;4962177;28;20455;-70
2022/02/26 01:01:48;;;;;;;36.00;21.85;;;;;;;4.98;100.00;101460.22;4975954;28;20026;-71
2022/02/26 01:04:35;;;;;;;38.10;21.92;;;;;;;5.85;100.00;101460.72;4977441;28;20038;-71
2022/02/26 01:07:21;;;;;;;38.13;22.35;;;;;;;5.18;100.00;101456.25;4975690;28;20099;-71
2022/02/26 01:10:08;;;;;;;38.25;22.23;;;;;;;5.41;100.00;101454.88;4976464;28;20026;-71
2022/02/26 01:12:53;;;;;;;47.88;27.45;;;;;;;5.71;100.00;101462.25;4975683;28;20038;-70
2022/02/26 01:15:39;;;;;;;50.28;28.75;;;;;;;5.98;100.00;101470.47;4975260;28;20506;-71
2022/02/26 01:18:25;;;;;;;52.13;30.40;;;;;;;5.82;100.00;101471.13;4961880;28;20051;-70
2022/02/26 01:21:11;;;;;;;60.33;32.50;;;;;;;5.31;100.00;101474.66;4976588;28;20117;-71
2022/02/26 01:23:58;;;;;;;55.45;32.53;;;;;;;5.59;100.00;101475.97;4975101;28;20109;-70
2022/02/26 01:26:44;;;;;;;60.20;34.97;;;;;;;5.76;100.00;101482.28;4961957;28;20019;-71
2022/02/26 01:29:29;;;;;;;58.67;32.38;;;;;;;5.29;100.00;101483.28;4975024;28;20034;-71
2022/02/26 01:32:15;;;;;;;68.53;36.92;;;;;;;5.55;100.00;101479.38;4975400;28;20023;-71
2022/02/26 01:35:03;;;;;;;84.15;41.08;;;;;;;5.76;100.00;101466.66;4975720;28;20443;-71
2022/02/26 01:37:49;;;;;;;86.30;42.35;;;;;;;5.85;100.00;101474.63;4962774;28;20118;-72
2022/02/26 01:40:35;;;;;;;81.78;40.83;;;;;;;5.66;100.00;101482.13;4975006;28;20023;-70
2022/02/26 01:43:20;;;;;;;75.43;39.70;;;;;;;5.78;100.00;101482.28;4975300;28;20027;-71
2022/02/26 01:46:07;;;;;;;79.03;43.50;;;;;;;5.48;100.00;101483.56;4976477;28;20039;-71
2022/02/26 01:48:53;;;;;;;86.60;45.95;;;;;;;5.58;100.00;101481.13;4976174;28;20026;-71
2022/02/26 01:51:39;;;;;;;85.88;47.47;;;;;;;5.23;100.00;101478.00;4976326;28;20106;-71
2022/02/26 01:54:24;;;;;;;78.32;43.13;;;;;;;5.58;100.00;101481.13;4975205;28;20039;-71
2022/02/26 01:57:10;;;;;;;67.15;40.58;;;;;;;5.66;100.00;101485.56;4976209;28;20408;-71
2022/02/26 01:59:56;;;;;;;80.22;42.15;;;;;;;5.72;100.00;101479.59;4975819;28;20347;-71
2022/02/26 02:02:42;;;;;;;71.28;39.35;;;;;;;5.50;100.00;101491.38;4975979;28;20031;-71
2022/02/26 02:05:31;;;;;;;69.40;39.72;;;;;;;5.57;100.00;101492.34;4975711;28;20106;-72
2022/02/26 02:08:17;;;;;;;65.03;36.33;;;;;;;5.44;100.00;101499.97;4975940;28;20491;-71
2022/02/26 02:11:03;;;;;;;61.13;35.05;;;;;;;5.34;100.00;101500.69;4976476;28;20038;-71
2022/02/26 02:13:48;;;;;;;63.38;35.70;;;;;;;5.56;100.00;101509.69;4978633;28;20054;-73
2022/02/26 02:16:36;;;;;;;58.75;34.38;;;;;;;5.27;100.00;101508.38;4979099;28;20031;-71
2022/02/26 02:19:24;;;;;;;52.55;29.90;;;;;;;5.20;100.00;101503.91;4965573;28;20058;-72
2022/02/26 02:22:10;;;;;;;49.50;29.08;;;;;;;5.51;100.00;101515.66;4978891;28;20097;-72
2022/02/26 02:24:55;;;;;;;39.35;24.42;;;;;;;5.74;100.00;101514.28;4965219;28;20034;-71
2022/02/26 02:27:41;;;;;;;35.15;22.02;;;;;;;5.52;100.00;101515.69;4978698;28;20035;-71
2022/02/26 02:30:28;;;;;;;46.72;25.52;;;;;;;5.36;100.00;101517.16;4978145;28;20041;-71
2022/02/26 02:33:13;;;;;;;41.85;24.25;;;;;;;5.11;100.00;101507.22;4964381;28;20351;-71
2022/02/26 02:35:59;;;;;;;41.20;25.73;;;;;;;4.88;100.00;101521.53;4964623;28;20027;-71
2022/02/26 02:38:45;;;;;;;45.25;25.20;;;;;;;5.18;100.00;101524.66;4979483;28;20026;-71
2022/02/26 02:41:31;;;;;;;44.90;24.60;;;;;;;5.19;100.00;101535.94;4978934;28;20019;-71
2022/02/26 02:44:16;;;;;;;33.47;20.30;;;;;;;5.05;100.00;101540.00;4978919;28;20038;-71
2022/02/26 02:47:02;;;;;;;38.13;21.52;;;;;;;5.10;100.00;101544.44;4964665;28;20035;-71
2022/02/26 02:49:48;;;;;;;36.47;21.95;;;;;;;5.11;100.00;101558.31;4978959;28;20360;-72
2022/02/26 02:52:34;;;;;;;39.60;22.50;;;;;;;5.38;100.00;101552.72;4979024;28;20027;-72
2022/02/26 02:55:21;;;;;;;37.47;21.40;;;;;;;5.43;100.00;101563.19;4977938;28;20090;-71
2022/02/26 02:58:07;;;;;;;36.70;20.88;;;;;;;5.38;100.00;101564.84;4964570;28;20037;-72
2022/02/26 03:00:54;;;;;;;34.60;21.10;;;;;;;5.49;100.00;101565.00;4963963;28;20030;-71
2022/02/26 03:03:40;;;;;;;41.72;22.02;;;;;;;5.38;100.00;101571.75;4963911;28;20062;-71
2022/02/26 03:06:27;;;;;;;36.63;20.25;;;;;;;5.39;100.00;101571.78;4978812;28;20475;-72
2022/02/26 03:09:13;;;;;;;36.00;19.55;;;;;;;5.14;100.00;101568.72;4965461;28;20045;-70
2022/02/26 03:11:58;;;;;;;31.05;18.83;;;;;;;5.40;100.00;101570.91;4978385;28;20033;-71
2022/02/26 03:14:44;;;;;;;32.67;18.60;;;;;;;4.98;100.00;101572.78;4964303;28;20511;-72
2022/02/26 03:17:30;;;;;;;29.45;17.23;;;;;;;5.13;100.00;101572.19;4978026;28;20054;-71
2022/02/26 03:20:16;;;;;;;27.35;16.52;;;;;;;5.47;100.00;101564.13;4963628;28;20085;-70
2022/02/26 03:23:02;;;;;;;24.83;15.45;;;;;;;5.58;100.00;101562.56;4962881;28;20035;-72
2022/02/26 03:25:47;;;;;;;25.75;14.75;;;;;;;5.45;100.00;101573.59;4977635;28;20035;-71
2022/02/26 03:28:33;;;;;;;25.65;15.52;;;;;;;5.14;100.00;101573.91;4977941;28;20030;-71
2022/02/26 03:31:19;;;;;;;22.63;14.98;;;;;;;5.30;100.00;101581.13;4977503;28;20069;-71
2022/02/26 03:34:05;;;;;;;25.13;14.55;;;;;;;5.69;100.00;101575.72;4978119;28;20106;-71
2022/02/26 03:36:53;;;;;;;28.23;14.48;;;;;;;5.38;100.00;101583.88;4978040;28;20066;-71
2022/02/26 03:39:39;;;;;;;25.13;14.07;;;;;;;5.43;100.00;101591.78;4978949;28;20121;-71
2022/02/26 03:42:25;;;;;;;26.38;15.15;;;;;;;5.37;100.00;101593.41;4977334;28;20470;-70
2022/02/26 03:45:11;;;;;;;26.80;15.27;;;;;;;5.33;100.00;101592.47;4964298;28;20038;-70
2022/02/26 03:47:57;;;;;;;27.63;15.27;;;;;;;5.43;100.00;101595.22;4977858;28;20039;-71
2022/02/26 03:50:43;;;;;;;24.10;14.23;;;;;;;5.57;100.00;101593.72;4977330;28;20035;-71
2022/02/26 03:53:30;;;;;;;23.55;15.45;;;;;;;5.38;100.00;101596.03;4977715;28;20110;-70
2022/02/26 03:56:16;;;;;;;24.70;14.48;;;;;;;5.65;100.00;101605.13;4977751;28;20089;-72
2022/02/26 03:59:02;;;;;;;26.77;15.43;;;;;;;5.56;100.00;101604.97;4978142;28;20027;-71
2022/02/26 04:01:48;;;;;;;26.38;15.48;;;;;;;5.19;100.00;101611.28;4977480;28;20034;-71
2022/02/26 04:04:35;;;;;;;22.70;14.73;;;;;;;5.36;100.00;101610.69;4963280;28;20030;-71
2022/02/26 04:07:21;;;;;;;25.90;14.65;;;;;;;5.31;100.00;101617.53;4962900;28;20470;-71
2022/02/26 04:10:07;;;;;;;23.23;14.00;;;;;;;5.63;100.00;101623.31;4978048;28;20026;-70
2022/02/26 04:12:52;;;;;;;25.75;13.85;;;;;;;5.72;100.00;101623.47;4962522;28;20138;-70
2022/02/26 04:15:38;;;;;;;23.00;13.93;;;;;;;5.56;100.00;101624.06;4963466;28;20066;-71
2022/02/26 04:18:24;;;;;;;22.02;13.80;;;;;;;5.69;100.00;101623.41;4961161;28;20046;-71
2022/02/26 04:21:10;;;;;;;25.38;14.65;;;;;;;5.84;100.00;101626.28;4976816;28;20034;-71
2022/02/26 04:23:57;;;;;;;23.33;14.52;;;;;;;5.38;100.00;101635.84;4976813;28;20035;-71
2022/02/26 04:26:44;;;;;;;25.25;14.93;;;;;;;5.11;100.00;101634.47;4978096;28;20351;-70
2022/02/26 04:29:30;;;;;;;23.50;14.10;;;;;;;4.75;100.00;101632.91;4976434;28;20449;-70
2022/02/26 04:32:16;;;;;;;26.98;14.23;;;;;;;4.76;100.00;101639.84;4976302;28;20026;-70
2022/02/26 04:35:03;;;;;;;25.45;13.88;;;;;;;4.63;100.00;101641.28;4963095;28;20058;-71
2022/02/26 04:37:48;;;;;;;26.90;14.93;;;;;;;4.74;100.00;101645.00;4976963;28;20121;-70
2022/02/26 04:40:34;;;;;;;26.40;15.07;;;;;;;4.87;100.00;101646.97;4975903;28;20076;-71
2022/02/26 04:43:20;;;;;;;26.35;14.55;;;;;;;4.94;100.00;101651.47;4975992;28;20042;-71
2022/02/26 04:46:06;;;;;;;25.50;14.30;;;;;;;4.89;100.00;101652.22;4976726;28;20038;-71
2022/02/26 04:48:52;;;;;;;27.48;15.10;;;;;;;5.07;100.00;101637.88;4962042;28;20039;-71
2022/02/26 04:51:37;;;;;;;26.65;15.48;;;;;;;4.91;100.00;101645.34;4976870;28;20046;-71
2022/02/26 04:54:23;;;;;;;24.20;14.43;;;;;;;5.00;100.00;101641.22;4975730;28;20066;-72
2022/02/26 04:57:09;;;;;;;25.05;15.15;;;;;;;4.98;100.00;101650.69;4976286;28;20420;-71
2022/02/26 04:59:55;;;;;;;27.45;15.63;;;;;;;5.18;100.00;101649.34;4961711;28;20444;-71
2022/02/26 05:02:41;;;;;;;30.45;16.02;;;;;;;5.20;100.00;101650.22;4975843;28;20232;-70
2022/02/26 05:05:28;;;;;;;27.48;16.05;;;;;;;5.10;100.00;101669.09;4976365;28;20416;-71
2022/02/26 05:08:13;;;;;;;27.90;15.40;;;;;;;5.20;100.00;101671.00;4975271;28;20344;-70
2022/02/26 05:10:59;;;;;;;28.83;16.00;;;;;;;5.25;100.00;101682.41;4976211;28;20026;-71
2022/02/26 05:13:45;;;;;;;27.42;14.50;;;;;;;5.34;100.00;101682.56;4961861;28;20097;-71
2022/02/26 05:16:31;;;;;;;30.63;16.55;;;;;;;5.40;100.00;101687.00;4961490;28;20026;-71
2022/02/26 05:19:16;;;;;;;31.52;15.75;;;;;;;5.40;100.00;101685.25;4961105;28;20510;-71
2022/02/26 05:22:02;;;;;;;27.70;16.25;;;;;;;5.35;100.00;101688.66;4962553;28;20034;-71
2022/02/26 05:24:48;;;;;;;28.20;15.93;;;;;;;5.42;100.00;101695.69;4976259;28;20026;-70
2022/02/26 05:27:34;;;;;;;28.17;16.67;;;;;;;5.46;100.00;101701.84;4975242;28;20473;-71
2022/02/26 05:30:20;;;;;;;27.52;16.38;;;;;;;5.64;100.00;101699.56;4975653;28;20031;-71
2022/02/26 05:33:05;;;;;;;32.08;16.23;;;;;;;5.70;100.00;101703.13;4962000;28;20026;-72
2022/02/26 05:35:51;;;;;;;27.15;16.33;;;;;;;5.59;100.00;101711.59;4975648;28;20477;-71
2022/02/26 05:38:37;;;;;;;26.50;16.35;;;;;;;5.60;100.00;101710.75;4975603;28;20035;-72
2022/02/26 05:41:23;;;;;;;33.55;17.42;;;;;;;5.67;100.00;101712.63;4961577;28;20049;-71
2022/02/26 05:44:09;;;;;;;29.42;16.40;;;;;;;5.76;100.00;101712.78;4975174;28;20368;-71
2022/02/26 05:46:54;;;;;;;31.25;17.13;;;;;;;5.66;100.00;101722.13;4978067;28;20035;-71
2022/02/26 05:49:40;;;;;;;27.95;16.25;;;;;;;5.73;100.00;101725.72;4978942;28;20078;-71
2022/02/26 05:52:26;;;;;;;27.83;16.48;;;;;;;5.71;100.00;101725.72;4965345;28;20031;-71
2022/02/26 05:55:12;;;;;;;25.80;16.63;;;;;;;5.70;100.00;101729.13;4978553;28;20054;-70
2022/02/26 05:57:58;;;;;;;27.65;16.42;;;;;;;5.93;100.00;101740.88;4980117;28;20026;-71
2022/02/26 06:00:44;;;;;;;28.52;16.10;;;;;;;5.85;100.00;101742.44;4979676;28;20030;-71
2022/02/26 06:03:29;;;;;;;28.83;16.52;;;;;;;5.96;100.00;101745.25;4979123;28;20026;-71
2022/02/26 06:06:15;;;;;;;27.50;16.92;;;;;;;6.04;100.00;101741.94;4979175;28;20035;-71
2022/02/26 06:09:02;;;;;;;28.23;16.45;;;;;;;6.02;100.00;101755.78;4979004;28;20423;-70
2022/02/26 06:11:47;;;;;;;25.92;16.83;;;;;;;6.14;100.00;101743.81;4978995;28;20357;-71
2022/02/26 06:14:33;;;;;;;30.25;17.45;;;;;;;6.18;100.00;101749.97;4979797;28;20045;-71
2022/02/26 06:17:19;;;;;;;28.92;16.70;;;;;;;6.11;100.00;101750.72;4978790;28;20041;-71
2022/02/26 06:20:06;;;;;;;32.00;17.90;;;;;;;6.13;100.00;101757.69;4978866;28;20113;-71
2022/02/26 06:22:52;;;;;;;32.08;17.20;;;;;;;6.31;100.00;101760.59;4980114;28;20067;-71
2022/02/26 06:25:38;;;;;;;28.42;17.25;;;;;;;6.20;100.00;101761.28;4963777;28;20042;-70
2022/02/26 06:28:23;;;;;;;32.95;16.85;;;;;;;6.51;100.00;101776.53;4978835;28;20034;-72
2022/02/26 06:31:09;;;;;;;33.20;18.00;;;;;;;6.46;100.00;101779.06;4978528;28;20090;-71
2022/02/26 06:33:55;;;;;;;33.97;17.63;;;;;;;6.33;100.00;101786.63;4978091;28;20034;-72
2022/02/26 06:36:40;;;;;;;30.40;17.33;;;;;;;6.41;100.00;101790.25;4978742;28;20035;-71
2022/02/26 06:39:26;;;;;;;33.63;18.13;;;;;;;6.58;100.00;101792.28;4979090;28;20340;-72
2022/02/26 06:42:12;;;;;;;31.08;18.40;;;;;;;6.44;100.00;101791.19;4978470;28;20126;-72
2022/02/26 06:44:58;;;;;;;30.02;18.05;;;;;;;6.47;100.00;101796.41;4979537;28;20027;-71
2022/02/26 06:47:44;;;;;;;30.45;18.15;;;;;;;6.77;100.00;101799.53;4978397;28;20109;-71
2022/02/26 06:50:30;;;;;;;30.05;18.10;;;;;;;6.74;100.00;101801.19;4978524;28;20070;-71
2022/02/26 06:53:16;;;;;;;33.30;19.00;;;;;;;6.79;100.00;101810.81;4978417;28;20027;-71
2022/02/26 06:56:02;;;;;;;32.50;17.92;;;;;;;6.86;100.00;101812.66;4963461;28;20439;-71
2022/02/26 06:58:48;;;;;;;29.55;17.58;;;;;;;6.92;100.00;101809.28;4977077;28;20031;-71
2022/02/26 07:01:34;;;;;;;33.08;18.67;;;;;;;6.98;100.00;101819.78;4978344;28;20027;-73
2022/02/26 07:04:19;;;;;;;32.00;18.73;;;;;;;7.14;100.00;101819.16;4977688;28;20037;-70
2022/02/26 07:07:05;;;;;;;32.95;18.73;;;;;;;7.09;100.00;101821.72;4978426;28;20391;-71
2022/02/26 07:09:52;;;;;;;36.38;18.42;;;;;;;7.01;100.00;101822.44;4978553;28;20046;-71
2022/02/26 07:12:38;;;;;;;29.38;18.58;;;;;;;7.07;100.00;101826.00;4963377;28;20058;-71
2022/02/26 07:15:27;;;;;;;29.25;18.35;;;;;;;7.15;100.00;101836.56;4978150;28;20042;-71
2022/02/26 07:18:12;;;;;;;35.05;19.27;;;;;;;7.24;100.00;101836.69;4976888;28;20503;-70
2022/02/26 07:20:58;;;;;;;31.48;19.45;;;;;;;7.39;100.00;101831.69;4978340;28;20045;-71
2022/02/26 07:23:44;;;;;;;38.25;18.50;;;;;;;7.31;100.00;101835.91;4977744;28;20031;-72
2022/02/26 07:26:31;;;;;;;34.15;19.13;;;;;;;7.57;100.00;101842.31;4978315;28;20114;-72
2022/02/26 07:29:16;;;;;;;34.70;19.65;;;;;;;7.61;100.00;101837.19;4978402;28;20026;-72
2022/02/26 07:32:02;;;;;;;34.78;20.65;;;;;;;7.63;100.00;101845.03;4963739;28;20033;-71
2022/02/26 07:34:48;;;;;;;34.88;21.45;;;;;;;7.71;100.00;101845.97;4978057;28;20030;-73
2022/02/26 07:37:34;;;;;;;33.53;19.10;;;;;;;7.80;100.00;101839.13;4977565;28;20404;-72
2022/02/26 07:40:20;;;;;;;30.33;18.88;;;;;;;7.89;100.00;101848.81;4963350;28;20027;-72
2022/02/26 07:43:06;;;;;;;35.25;18.42;;;;;;;7.73;100.00;101845.16;4978484;28;20105;-71
2022/02/26 07:45:51;;;;;;;31.27;18.98;;;;;;;8.01;100.00;101846.34;4963267;28;20022;-72
2022/02/26 07:48:38;;;;;;;31.40;18.48;;;;;;;7.99;100.00;101850.63;4978225;28;20030;-70
2022/02/26 07:51:24;;;;;;;30.20;18.50;;;;;;;8.09;100.00;101836.84;4978163;28;20369;-71
2022/02/26 07:54:10;;;;;;;36.15;19.83;;;;;;;8.23;100.00;101837.88;4976949;28;20034;-71
2022/02/26 07:56:55;;;;;;;35.72;19.75;;;;;;;8.47;100.00;101830.28;4978465;28;20471;-71
2022/02/26 07:59:41;;;;;;;34.33;19.10;;;;;;;8.37;100.00;101834.53;4976500;28;20137;-71
2022/02/26 08:02:27;;;;;;;37.30;22.00;;;;;;;8.67;100.00;101826.97;4976260;28;20065;-71
2022/02/26 08:05:14;;;;;;;30.65;18.73;;;;;;;9.10;100.00;101839.50;4978368;28;20113;-72
2022/02/26 08:07:59;;;;;;;34.80;19.73;;;;;;;9.12;100.00;101831.63;4977233;28;20031;-71
2022/02/26 08:10:45;;;;;;;28.00;17.85;;;;;;;9.37;100.00;101831.78;4976386;28;20045;-70
2022/02/26 08:13:31;;;;;;;33.35;17.73;;;;;;;9.06;100.00;101836.84;4976432;28;20379;-71
2022/02/26 08:16:17;;;;;;;33.08;18.33;;;;;;;8.83;100.00;101838.41;4963148;28;20177;-72
2022/02/26 08:19:03;;;;;;;29.63;18.35;;;;;;;8.87;100.00;101830.63;4976222;28;20053;-70
2022/02/26 08:21:49;;;;;;;30.02;18.45;;;;;;;9.25;100.00;101839.56;4963838;28;20035;-70
2022/02/26 08:24:35;;;;;;;33.95;18.60;;;;;;;9.20;100.00;101830.81;4962213;28;20042;-71
2022/02/26 08:27:21;;;;;;;35.45;19.30;;;;;;;9.56;100.00;101837.97;4962845;28;20026;-71
2022/02/26 08:30:09;;;;;;;35.30;18.92;;;;;;;9.89;100.00;101846.84;4962136;28;20027;-70
2022/02/26 08:32:55;;;;;;;33.03;18.63;;;;;;;9.75;100.00;101835.47;4975942;28;20046;-70
2022/02/26 08:35:41;;;;;;;30.33;18.20;;;;;;;9.64;100.00;101839.78;4975928;28;20035;-71
2022/02/26 08:38:27;;;;;;;29.88;18.15;;;;;;;9.89;100.00;101838.13;4977276;28;20117;-71
2022/02/26 08:41:13;;;;;;;28.80;18.08;;;;;;;9.81;100.00;101842.47;4963208;28;20437;-71
2022/02/26 08:43:58;;;;;;;29.00;17.90;;;;;;;9.96;100.00;101837.25;4975943;28;20130;-71
2022/02/26 08:46:44;;;;;;;29.70;17.90;;;;;;;10.12;100.00;101835.59;4976318;28;20042;-70
2022/02/26 08:49:30;;;;;;;31.05;17.63;;;;;;;10.12;100.00;101849.53;4962412;28;20089;-70
2022/02/26 08:52:16;;;;;;;32.90;18.63;;;;;;;10.28;100.00;101845.22;4976264;28;20027;-71
2022/02/26 08:55:03;;;;;;;25.80;17.13;;;;;;;10.39;100.00;101831.25;4975872;28;20050;-71
2022/02/26 08:57:49;;;;;;;26.67;17.48;;;;;;;10.75;100.00;101830.38;4976547;28;20026;-70
2022/02/26 09:00:35;;;;;;;33.60;18.73;;;;;;;10.63;100.00;101833.00;4975906;28;20512;-71
2022/02/26 09:03:21;;;;;;;33.70;19.08;;;;;;;10.40;100.00;101824.28;4961801;28;20116;-71
2022/02/26 09:06:07;;;;;;;29.33;18.25;;;;;;;10.66;100.00;101822.53;4975945;28;20102;-71
2022/02/26 09:08:55;;;;;;;29.98;17.88;;;;;;;9.78;100.00;101831.97;4976213;28;20030;-72
2022/02/26 09:11:43;;;;;;;28.25;18.15;;;;;;;9.77;100.00;101841.56;4976247;28;20371;-71
2022/02/26 09:14:29;;;;;;;29.52;17.65;;;;;;;9.52;100.00;101834.47;4962240;28;20125;-71
2022/02/26 09:17:15;;;;;;;29.75;17.45;;;;;;;10.66;100.00;101825.16;4961669;28;20042;-71
2022/02/26 09:20:01;;;;;;;36.65;18.42;;;;;;;9.97;100.00;101831.16;4975790;28;20104;-70
2022/02/26 09:22:47;;;;;;;28.52;16.85;;;;;;;9.68;100.00;101835.41;4976404;28;20071;-71
2022/02/26 09:25:33;;;;;;;27.60;17.88;;;;;;;10.25;100.00;101821.66;4975540;28;20036;-70
2022/02/26 09:28:18;;;;;;;29.88;17.60;;;;;;;10.29;100.00;101826.03;4977224;28;20090;-71
2022/02/26 09:31:05;;;;;;;28.92;17.77;;;;;;;10.66;100.00;101828.66;4960548;28;20026;-71
2022/02/26 09:33:51;;;;;;;33.60;18.40;;;;;;;10.66;100.00;101825.16;4975405;28;20042;-71
2022/02/26 09:36:37;;;;;;;29.00;18.42;;;;;;;11.20;100.00;101831.19;4975623;28;20065;-71
2022/02/26 09:39:22;;;;;;;26.27;18.05;;;;;;;11.02;100.00;101828.63;4961514;28;20110;-71
2022/02/26 09:42:08;;;;;;;30.40;18.60;;;;;;;11.02;100.00;101827.75;4961265;28;20065;-71
2022/02/26 09:44:55;;;;;;;30.20;18.70;;;;;;;10.68;100.00;101834.75;4974863;28;20027;-71
2022/02/26 09:47:41;;;;;;;28.02;17.73;;;;;;;10.22;100.00;101829.50;4976317;28;20121;-72
2022/02/26 09:50:27;;;;;;;27.38;18.70;;;;;;;10.56;100.00;101824.28;4961222;28;20380;-72
2022/02/26 09:53:13;;;;;;;30.83;19.17;;;;;;;10.22;100.00;101835.63;4975345;28;20023;-71
2022/02/26 09:55:59;;;;;;;30.27;18.70;;;;;;;10.02;100.00;101838.13;4975700;28;20030;-70
2022/02/26 09:58:45;;;;;;;30.50;19.25;;;;;;;10.23;100.00;101823.38;4961288;28;20039;-71
2022/02/26 10:01:33;;;;;;;28.95;19.25;;;;;;;10.41;100.00;101826.03;4974544;28;20416;-71
2022/02/26 10:04:19;;;;;;;29.50;18.00;;;;;;;10.27;100.00;101822.50;4975213;28;20050;-70
2022/02/26 10:07:10;;;;;;;30.80;18.25;;;;;;;10.68;100.00;101824.28;4975131;28;20371;-70
2022/02/26 10:09:56;;;;;;;27.90;17.00;;;;;;;10.67;100.00;101830.41;4975665;28;20041;-71
2022/02/26 10:12:42;;;;;;;26.88;16.77;;;;;;;10.64;100.00;101819.06;4975030;28;20090;-70
2022/02/26 10:15:35;;;;;;;29.02;17.42;;;;;;;11.22;100.00;101823.34;4962458;28;20037;-70
2022/02/26 10:18:22;;;;;;;23.48;16.55;;;;;;;11.66;97.74;101824.09;4961592;28;20055;-71
2022/02/26 10:21:08;;;;;;;26.05;17.30;;;;;;;11.64;93.41;101821.47;4960918;28;20046;-71
2022/02/26 10:23:54;;;;;;;30.00;16.70;;;;;;;11.72;93.00;101826.69;4975477;28;20419;-71
2022/02/26 10:26:39;;;;;;;24.98;17.17;;;;;;;11.42;94.24;101825.03;4976178;28;20478;-70
2022/02/26 10:29:25;;;;;;;23.90;16.27;;;;;;;11.80;93.56;101827.50;4976143;28;20171;-70
2022/02/26 10:32:11;;;;;;;28.85;17.90;;;;;;;11.83;92.31;101828.41;4976159;28;20081;-70
2022/02/26 10:34:57;;;;;;;24.90;17.15;;;;;;;11.62;89.93;101836.34;4978651;28;20031;-70
2022/02/26 10:37:43;;;;;;;25.45;16.65;;;;;;;11.43;89.10;101832.03;4978341;28;20035;-71
2022/02/26 10:40:48;;;;;;;26.08;16.88;;;;;;;11.85;86.87;101826.63;4979453;28;20038;-70
2022/02/26 10:43:51;;;;;;;25.30;16.73;;;;;;;11.55;88.56;101831.09;4963924;28;20099;-70
2022/02/26 10:46:37;;;;;;;26.88;17.00;;;;;;;11.47;92.23;101836.38;4978853;28;20031;-72
2022/02/26 10:49:26;;;;;;;30.13;18.02;;;;;;;11.73;90.91;101831.06;4978084;28;20051;-70
2022/02/26 10:52:14;;;;;;;24.80;15.98;;;;;;;12.22;86.76;101816.78;4979466;28;20019;-70
2022/02/26 10:55:07;;;;;;;25.33;15.70;;;;;;;12.77;84.08;101818.06;4979445;28;20098;-70
2022/02/26 10:57:58;;;;;;;24.40;15.50;;;;;;;12.38;83.67;101814.00;4979634;28;20104;-71
2022/02/26 11:00:49;;;;;;;24.52;15.55;;;;;;;12.46;80.13;101814.81;4965333;28;20101;-70
2022/02/26 11:03:35;;;;;;;24.13;15.25;;;;;;;12.41;78.37;101815.75;4980215;28;20090;-70
2022/02/26 11:06:22;;;;;;;24.58;14.77;;;;;;;12.14;78.51;101810.72;4979986;28;20033;-71
2022/02/26 11:09:08;;;;;;;25.45;14.50;;;;;;;12.58;74.17;101813.88;4978755;28;20373;-71
2022/02/26 11:11:59;;;;;;;21.27;13.88;;;;;;;12.80;73.66;101812.78;4980743;28;20094;-71
2022/02/26 11:15:01;;;;;;;24.05;13.93;;;;;;;12.82;70.93;101817.16;4978895;28;20027;-71
2022/02/26 11:17:49;;;;;;;20.85;13.77;;;;;;;12.92;67.94;101802.16;4978283;28;20047;-71
2022/02/26 11:20:35;;;;;;;21.10;13.63;;;;;;;13.22;66.00;101805.38;4978920;28;20031;-71
2022/02/26 11:23:24;;;;;;;22.85;14.02;;;;;;;13.44;67.19;101811.28;4977788;28;20089;-72
2022/02/26 11:26:10;;;;;;;17.98;13.48;;;;;;;12.68;68.29;101807.66;4978399;28;20034;-71
2022/02/26 11:29:05;;;;;;;20.55;13.77;;;;;;;13.24;69.50;101805.38;4978036;28;20027;-71
2022/02/26 11:32:08;;;;;;;22.40;13.48;;;;;;;13.15;65.03;101802.84;4964453;28;20027;-70
2022/02/26 11:35:14;;;;;;;21.65;13.40;;;;;;;13.70;64.44;101801.28;4966456;28;20057;-70
2022/02/26 11:38:08;;;;;;;19.45;14.02;;;;;;;13.25;65.07;101796.56;4978704;28;20463;-71
2022/02/26 11:41:20;;;;;;;20.17;13.32;;;;;;;13.24;65.12;101795.72;4980375;28;20407;-70
2022/02/26 11:44:06;;;;;;;21.92;13.85;;;;;;;13.51;64.91;101789.25;4977156;28;20027;-70
2022/02/26 11:47:14;;;;;;;18.52;12.93;;;;;;;12.87;68.40;101801.34;4979726;28;20487;-70
2022/02/26 11:50:14;;;;;;;21.23;13.52;;;;;;;13.10;67.13;101794.13;4979513;28;20448;-70
2022/02/26 11:53:15;;;;;;;19.35;12.77;;;;;;;12.83;66.66;101789.97;4965086;28;20054;-71
2022/02/26 11:56:05;;;;;;;19.50;12.93;;;;;;;13.61;65.23;101790.88;4964855;28;20034;-70
2022/02/26 11:58:50;;;;;;;18.63;12.73;;;;;;;13.79;63.86;101778.31;4952897;28;20078;-70
2022/02/26 12:01:36;;;;;;;19.35;12.38;;;;;;;13.60;63.19;101776.84;4978344;28;20031;-70
2022/02/26 12:04:24;;;;;;;19.77;13.48;;;;;;;13.67;64.67;101786.38;4978974;28;20031;-72
2022/02/26 12:07:11;;;;;;;20.85;12.05;;;;;;;14.01;62.01;101782.41;4979006;28;20188;-72
2022/02/26 12:10:09;;;;;;;19.90;12.93;;;;;;;14.51;60.13;101785.16;4979250;28;20155;-71
2022/02/26 12:12:55;;;;;;;21.90;12.40;;;;;;;14.11;60.34;101784.00;4965809;28;20153;-71
2022/02/26 12:15:40;;;;;;;21.65;12.98;;;;;;;13.57;60.18;101790.03;4966469;28;20077;-71
2022/02/26 12:18:39;;;;;;;19.75;12.65;;;;;;;13.61;62.04;101781.22;4978703;28;20043;-71
2022/02/26 12:21:42;;;;;;;19.13;12.38;;;;;;;14.15;59.89;101779.56;4965955;28;20034;-70
2022/02/26 12:24:30;;;;;;;21.15;12.15;;;;;;;14.69;58.72;101782.22;4977570;28;20353;-71
2022/02/26 12:27:30;;;;;;;19.00;11.95;;;;;;;14.55;58.87;101793.91;4978075;28;20027;-70
2022/02/26 12:30:16;;;;;;;19.05;11.88;;;;;;;13.95;59.48;101786.91;4978170;28;20026;-71
2022/02/26 12:33:03;;;;;;;20.00;11.68;;;;;;;13.99;59.13;101784.19;4965141;28;20412;-71
2022/02/26 12:35:49;;;;;;;22.25;12.63;;;;;;;13.45;60.69;101790.19;4965993;28;20500;-71
2022/02/26 12:38:46;;;;;;;19.88;10.95;;;;;;;13.15;62.20;101795.78;4976929;28;20034;-70